createdAt,value
2023-02-18T00:02:13.890Z,7.37
2023-02-18T00:04:42.986Z,6.67
2023-02-18T00:07:14.473Z,7.10
2023-02-18T00:09:45.284Z,7.55
2023-02-18T00:15:06.453Z,6.07
2023-02-18T00:17:40.406Z,7.63
2023-02-18T00:20:17.668Z,10.70
2023-02-18T00:22:49.267Z,7.60
2023-02-18T00:25:17.841Z,7.30
2023-02-18T00:27:51.303Z,7.13
2023-02-18T00:30:20.854Z,7.00
2023-02-18T00:32:54.628Z,6.93
2023-02-18T00:35:25.747Z,8.37
2023-02-18T00:37:59.401Z,8.98
2023-02-18T00:40:31.780Z,8.63
2023-02-18T00:43:05.657Z,8.90
2023-02-18T00:45:43.770Z,7.73
2023-02-18T00:48:12.750Z,7.07
2023-02-18T00:50:44.015Z,6.97
2023-02-18T00:53:14.155Z,8.40
2023-02-18T00:55:50.083Z,8.07
2023-02-18T00:58:25.720Z,9.90
2023-02-18T01:00:55.950Z,7.20
2023-02-18T01:03:32.602Z,7.77
2023-02-18T01:06:02.823Z,6.00
2023-02-18T01:08:39.672Z,8.33
2023-02-18T01:11:16.688Z,7.17
2023-02-18T01:13:47.903Z,7.00
2023-02-18T01:16:28.178Z,9.77
2023-02-18T01:18:59.370Z,5.93
2023-02-18T01:21:29.160Z,6.30
2023-02-18T01:24:03.278Z,9.43
2023-02-18T01:26:34.106Z,8.80
2023-02-18T01:29:14.836Z,6.85
2023-02-18T01:31:46.113Z,8.10
2023-02-18T01:34:28.588Z,7.50
2023-02-18T01:36:59.242Z,8.10
2023-02-18T01:39:33.228Z,7.40
2023-02-18T01:42:01.493Z,7.63
2023-02-18T01:44:33.285Z,8.50
2023-02-18T01:47:07.870Z,7.00
2023-02-18T01:49:39.705Z,8.03
2023-02-18T01:52:17.035Z,7.53
2023-02-18T01:54:53.065Z,7.17
2023-02-18T01:57:42.171Z,6.77
2023-02-18T02:00:15.536Z,9.23
2023-02-18T02:02:54.008Z,7.20
2023-02-18T02:05:31.328Z,7.43
2023-02-18T02:08:08.561Z,7.47
2023-02-18T02:11:08.663Z,6.40
2023-02-18T02:14:13.311Z,7.83
2023-02-18T02:17:01.500Z,5.83
2023-02-18T02:20:10.480Z,8.23
2023-02-18T02:27:00.573Z,9.27
2023-02-18T02:30:21.716Z,6.80
2023-02-18T02:33:43.447Z,9.30
2023-02-18T02:36:24.372Z,7.50
2023-02-18T02:39:26.163Z,7.37
2023-02-18T02:42:58.055Z,7.18
2023-02-18T02:46:05.918Z,9.10
2023-02-18T02:49:02.733Z,8.93
2023-02-18T02:51:41.865Z,11.33
2023-02-18T02:54:31.542Z,9.87
2023-02-18T02:57:38.294Z,8.03
2023-02-18T03:00:24.056Z,7.63
2023-02-18T03:03:41.169Z,9.17
2023-02-18T03:06:51.380Z,8.77
2023-02-18T03:09:49.873Z,7.93
2023-02-18T03:12:45.105Z,10.00
2023-02-18T03:15:38.759Z,9.67
2023-02-18T03:18:43.824Z,11.07
2023-02-18T03:21:31.470Z,8.13
2023-02-18T03:24:40.998Z,8.13
2023-02-18T03:27:26.368Z,9.37
2023-02-18T03:30:11.328Z,7.97
2023-02-18T03:32:50.841Z,9.13
2023-02-18T03:35:23.821Z,8.30
2023-02-18T03:38:36.498Z,10.47
2023-02-18T03:41:06.115Z,7.20
2023-02-18T03:43:40.763Z,9.60
2023-02-18T03:46:14.719Z,8.77
2023-02-18T03:49:00.202Z,10.03
2023-02-18T03:51:30.195Z,8.83
2023-02-18T03:54:01.115Z,9.17
2023-02-18T03:56:32.715Z,9.40
2023-02-18T03:59:03.354Z,7.63
2023-02-18T04:01:34.946Z,9.67
2023-02-18T04:04:09.360Z,9.77
2023-02-18T04:06:41.040Z,9.73
2023-02-18T04:11:58.142Z,11.10
2023-02-18T04:14:31.169Z,9.47
2023-02-18T04:17:06.548Z,9.10
2023-02-18T04:22:31.415Z,11.07
2023-02-18T04:25:02.177Z,10.20
2023-02-18T04:27:35.982Z,8.43
2023-02-18T04:30:13.715Z,9.83
2023-02-18T04:32:45.071Z,9.43
2023-02-18T04:35:22.710Z,10.15
2023-02-18T04:37:55.410Z,8.60
2023-02-18T04:40:26.087Z,8.77
2023-02-18T04:43:06.300Z,11.43
2023-02-18T04:45:37.168Z,9.50
2023-02-18T04:48:12.197Z,9.13
2023-02-18T04:50:49.238Z,9.43
2023-02-18T04:53:28.334Z,9.87
2023-02-18T04:56:08.391Z,10.33
2023-02-18T04:58:46.478Z,10.88
2023-02-18T05:01:16.901Z,10.83
2023-02-18T05:03:52.295Z,13.43
2023-02-18T05:06:27.261Z,11.27
2023-02-18T05:09:01.530Z,9.53
2023-02-18T05:11:30.949Z,11.57
2023-02-18T05:14:04.944Z,10.90
2023-02-18T05:16:35.566Z,9.97
2023-02-18T05:19:07.630Z,13.50
2023-02-18T05:21:39.131Z,12.00
2023-02-18T05:24:24.079Z,13.02
2023-02-18T05:26:57.643Z,9.93
2023-02-18T05:29:31.362Z,9.90
2023-02-18T05:32:01.661Z,10.53
2023-02-18T05:34:35.551Z,10.80
2023-02-18T05:37:18.673Z,11.50
2023-02-18T05:39:55.661Z,11.03
2023-02-18T05:42:27.582Z,11.83
2023-02-18T05:45:13.349Z,10.07
2023-02-18T05:47:46.826Z,12.43
2023-02-18T05:50:18.867Z,12.23
2023-02-18T05:52:49.303Z,10.67
2023-02-18T05:55:22.890Z,11.37
2023-02-18T05:58:00.646Z,10.80
2023-02-18T06:00:39.107Z,10.70
2023-02-18T06:03:09.381Z,12.00
2023-02-18T06:05:38.498Z,11.63
2023-02-18T06:08:10.135Z,13.63
2023-02-18T06:10:47.331Z,9.73
2023-02-18T06:13:26.815Z,10.03
2023-02-18T06:16:02.502Z,10.87
2023-02-18T06:18:37.126Z,11.33
2023-02-18T06:21:05.205Z,11.60
2023-02-18T06:23:42.871Z,12.60
2023-02-18T06:26:24.612Z,11.13
2023-02-18T06:29:01.159Z,12.98
2023-02-18T06:31:35.646Z,12.93
2023-02-18T06:34:13.442Z,11.87
2023-02-18T06:36:43.728Z,10.43
2023-02-18T06:39:17.049Z,13.33
2023-02-18T06:41:47.486Z,11.03
2023-02-18T06:44:30.587Z,11.90
2023-02-18T06:47:01.642Z,10.10
2023-02-18T06:49:32.497Z,11.43
2023-02-18T06:52:04.549Z,11.63
2023-02-18T06:54:41.549Z,11.07
2023-02-18T06:57:23.431Z,10.77
2023-02-18T07:00:00.571Z,13.48
2023-02-18T07:02:35.343Z,9.97
2023-02-18T07:05:04.303Z,11.77
2023-02-18T07:07:55.583Z,10.90
2023-02-18T07:10:29.604Z,10.37
2023-02-18T07:13:05.712Z,11.17
2023-02-18T07:15:40.499Z,10.73
2023-02-18T07:18:17.125Z,9.60
2023-02-18T07:20:48.008Z,11.70
2023-02-18T07:23:37.721Z,11.18
2023-02-18T07:26:22.373Z,13.47
2023-02-18T07:28:57.555Z,12.07
2023-02-18T07:31:26.995Z,11.07
2023-02-18T07:33:57.742Z,12.07
2023-02-18T07:36:27.554Z,12.23
2023-02-18T07:38:58.693Z,10.03
2023-02-18T07:41:33.454Z,10.48
2023-02-18T07:44:06.670Z,11.97
2023-02-18T07:46:37.011Z,11.50
2023-02-18T07:49:10.650Z,10.53
2023-02-18T07:51:41.869Z,9.43
2023-02-18T07:54:20.784Z,11.68
2023-02-18T07:56:51.602Z,10.87
2023-02-18T07:59:25.275Z,10.80
2023-02-18T08:01:55.302Z,11.57
2023-02-18T08:04:29.940Z,10.93
2023-02-18T08:07:01.007Z,11.03
2023-02-18T08:09:32.109Z,11.52
2023-02-18T08:12:03.413Z,10.13
2023-02-18T08:14:34.900Z,12.25
2023-02-18T08:17:12.464Z,8.82
2023-02-18T08:19:46.518Z,9.87
2023-02-18T08:22:18.058Z,11.27
2023-02-18T08:24:49.924Z,11.43
2023-02-18T08:27:19.780Z,12.00
2023-02-18T08:29:51.098Z,9.27
2023-02-18T08:32:22.511Z,8.93
2023-02-18T08:34:55.307Z,11.43
2023-02-18T08:37:52.620Z,8.60
2023-02-18T08:40:26.003Z,9.10
2023-02-18T08:43:14.046Z,9.60
2023-02-18T08:45:46.765Z,11.47
2023-02-18T08:51:08.359Z,8.30
2023-02-18T08:53:36.714Z,10.07
2023-02-18T08:56:11.500Z,9.43
2023-02-18T08:58:54.320Z,9.50
2023-02-18T09:01:39.173Z,7.90
2023-02-18T09:04:10.498Z,9.10
2023-02-18T09:06:45.175Z,10.35
2023-02-18T09:09:22.359Z,8.93
2023-02-18T09:11:52.671Z,8.80
2023-02-18T09:14:23.540Z,9.27
2023-02-18T09:16:55.366Z,8.93
2023-02-18T09:22:00.659Z,7.93
2023-02-18T09:24:32.855Z,7.73
2023-02-18T09:27:13.570Z,8.30
2023-02-18T09:29:45.920Z,8.87
2023-02-18T09:32:32.620Z,8.27
2023-02-18T09:35:08.551Z,8.17
2023-02-18T09:37:40.344Z,7.07
2023-02-18T09:40:25.070Z,6.68
2023-02-18T09:42:59.705Z,7.43
2023-02-18T09:45:29.674Z,7.13
2023-02-18T09:48:16.946Z,8.03
2023-02-18T09:50:50.117Z,7.50
2023-02-18T09:53:27.090Z,6.70
2023-02-18T09:55:59.136Z,7.33
2023-02-18T09:58:40.287Z,8.83
2023-02-18T10:01:32.428Z,8.10
2023-02-18T10:04:11.971Z,7.65
2023-02-18T10:06:49.624Z,6.40
2023-02-18T10:09:36.567Z,6.73
2023-02-18T10:12:29.339Z,8.30
2023-02-18T10:15:03.637Z,7.43
2023-02-18T10:17:47.859Z,8.27
2023-02-18T10:20:26.312Z,7.77
2023-02-18T10:23:05.452Z,8.57
2023-02-18T10:25:45.985Z,6.60
2023-02-18T10:28:16.475Z,7.70
2023-02-18T10:30:59.138Z,8.67
2023-02-18T10:34:14.255Z,7.83
2023-02-18T10:36:46.876Z,5.90
2023-02-18T10:39:56.854Z,7.77
2023-02-18T10:43:00.709Z,7.63
2023-02-18T10:46:00.965Z,4.87
2023-02-18T10:48:51.843Z,6.53
2023-02-18T10:51:32.134Z,7.63
2023-02-18T10:54:02.263Z,6.80
2023-02-18T10:56:43.643Z,8.13
2023-02-18T10:59:29.205Z,6.68
2023-02-18T11:02:14.999Z,8.80
2023-02-18T11:07:44.630Z,6.87
2023-02-18T11:10:44.257Z,7.00
2023-02-18T11:13:16.580Z,7.97
2023-02-18T11:16:09.306Z,6.30
2023-02-18T11:19:08.791Z,7.00
2023-02-18T11:21:51.273Z,6.30
2023-02-18T11:24:21.859Z,8.27
2023-02-18T11:26:55.905Z,8.20
2023-02-18T11:29:28.132Z,7.10
2023-02-18T11:32:09.271Z,6.47
2023-02-18T11:34:46.090Z,5.73
2023-02-18T11:37:25.209Z,7.43
2023-02-18T11:40:02.150Z,6.60
2023-02-18T11:42:36.905Z,6.57
2023-02-18T11:45:10.554Z,6.63
2023-02-18T11:47:47.676Z,7.03
2023-02-18T11:50:29.460Z,6.67
2023-02-18T11:53:02.868Z,6.72
2023-02-18T11:55:41.591Z,7.20
2023-02-18T11:58:16.012Z,6.00
2023-02-18T12:00:54.283Z,6.70
2023-02-18T12:04:17.440Z,5.73
2023-02-18T12:07:33.895Z,6.37
2023-02-18T12:10:17.416Z,5.43
2023-02-18T12:13:05.508Z,6.93
2023-02-18T12:16:22.048Z,5.40
2023-02-18T12:19:16.507Z,5.10
2023-02-18T12:22:23.642Z,6.03
2023-02-18T12:25:40.740Z,4.83
2023-02-18T12:28:33.818Z,5.67
2023-02-18T12:31:29.929Z,5.93
2023-02-18T12:34:37.401Z,4.87
2023-02-18T12:37:36.566Z,5.87
2023-02-18T12:40:34.787Z,5.70
2023-02-18T12:43:39.907Z,4.40
2023-02-18T12:46:31.271Z,4.90
2023-02-18T12:49:24.540Z,6.45
2023-02-18T12:52:11.522Z,4.97
2023-02-18T12:55:28.565Z,5.57
2023-02-18T12:58:31.004Z,4.03
2023-02-18T13:01:19.016Z,5.63
2023-02-18T13:04:23.735Z,5.23
2023-02-18T13:07:48.170Z,5.87
2023-02-18T13:11:13.114Z,5.50
2023-02-18T13:13:50.186Z,5.00
2023-02-18T13:16:20.944Z,6.00
2023-02-18T13:19:21.662Z,5.63
2023-02-18T13:21:54.922Z,5.47
2023-02-18T13:24:49.398Z,4.37
2023-02-18T13:28:04.645Z,6.03
2023-02-18T13:34:41.947Z,5.10
2023-02-18T13:37:47.821Z,6.18
2023-02-18T13:40:33.679Z,5.70
2023-02-18T13:43:26.707Z,6.30
2023-02-18T13:46:27.043Z,5.73
2023-02-18T13:49:13.635Z,5.17
2023-02-18T13:51:50.888Z,6.00
2023-02-18T13:54:46.287Z,5.27
2023-02-18T13:57:22.420Z,5.20
2023-02-18T14:00:07.527Z,6.77
2023-02-18T14:02:38.089Z,5.87
2023-02-18T14:05:56.801Z,5.83
2023-02-18T14:08:55.039Z,4.83
2023-02-18T14:11:26.798Z,4.90
2023-02-18T14:17:26.410Z,4.97
2023-02-18T14:22:58.281Z,4.60
2023-02-18T14:26:07.542Z,5.23
2023-02-18T14:28:40.721Z,4.63
2023-02-18T14:31:30.088Z,5.53
2023-02-18T14:34:17.289Z,5.43
2023-02-18T14:36:56.767Z,6.87
2023-02-18T14:39:47.061Z,4.87
2023-02-18T14:42:59.245Z,4.97
2023-02-18T14:45:56.576Z,6.40
2023-02-18T14:49:01.257Z,4.40
2023-02-18T14:51:38.576Z,4.43
2023-02-18T14:54:19.908Z,4.73
2023-02-18T14:57:22.396Z,5.95
2023-02-18T15:00:04.108Z,4.83
2023-02-18T15:02:41.086Z,5.60
2023-02-18T15:05:22.455Z,4.03
2023-02-18T15:08:16.241Z,4.90
2023-02-18T15:10:54.460Z,5.00
2023-02-18T15:13:32.390Z,4.43
2023-02-18T15:16:11.253Z,5.40
2023-02-18T15:18:56.482Z,4.53
2023-02-18T15:21:30.711Z,4.77
2023-02-18T15:24:19.105Z,5.27
2023-02-18T15:26:54.153Z,4.47
2023-02-18T15:29:33.157Z,4.60
2023-02-18T15:32:31.809Z,7.33
2023-02-18T15:35:11.834Z,5.00
2023-02-18T15:37:42.253Z,5.70
2023-02-18T15:40:20.516Z,5.40
2023-02-18T15:42:56.384Z,5.27
2023-02-18T15:45:36.180Z,6.27
2023-02-18T15:48:13.848Z,5.40
2023-02-18T15:50:56.884Z,4.97
2023-02-18T15:53:33.702Z,6.50
2023-02-18T15:56:10.275Z,5.17
2023-02-18T15:58:43.284Z,4.83
2023-02-18T16:01:47.070Z,4.70
2023-02-18T16:04:19.295Z,5.83
2023-02-18T16:07:04.766Z,4.40
2023-02-18T16:09:39.341Z,4.90
2023-02-18T16:12:36.974Z,6.17
2023-02-18T16:15:11.292Z,5.90
2023-02-18T16:17:45.881Z,5.23
2023-02-18T16:20:42.354Z,7.10
2023-02-18T16:23:23.876Z,5.90
2023-02-18T16:25:51.630Z,5.15
2023-02-18T16:28:36.125Z,5.63
2023-02-18T16:31:12.635Z,5.30
2023-02-18T16:33:43.000Z,4.33
2023-02-18T16:36:25.036Z,8.77
2023-02-18T16:39:02.026Z,5.97
2023-02-18T16:41:34.449Z,5.13
2023-02-18T16:44:03.008Z,5.70
2023-02-18T16:46:41.061Z,5.37
2023-02-18T16:49:20.632Z,6.03
2023-02-18T16:51:52.282Z,5.13
2023-02-18T16:54:25.585Z,5.90
2023-02-18T16:56:59.372Z,6.70
2023-02-18T17:02:12.463Z,5.70
2023-02-18T17:04:49.110Z,5.23
2023-02-18T17:07:20.046Z,4.90
2023-02-18T17:09:50.441Z,4.73
2023-02-18T17:12:26.111Z,5.07
2023-02-18T17:14:57.570Z,5.13
2023-02-18T17:17:28.104Z,5.43
2023-02-18T17:19:57.688Z,5.73
2023-02-18T17:22:31.257Z,5.10
2023-02-18T17:25:11.294Z,7.07
2023-02-18T17:27:43.184Z,5.97
2023-02-18T17:33:08.609Z,3.43
2023-02-18T17:35:44.572Z,4.83
2023-02-18T17:38:21.010Z,5.63
2023-02-18T17:40:50.111Z,3.43
2023-02-18T17:43:20.375Z,4.27
2023-02-18T17:46:02.084Z,3.20
2023-02-18T17:48:35.030Z,4.03
2023-02-18T17:51:08.766Z,4.27
2023-02-18T17:53:41.679Z,4.13
2023-02-18T17:56:15.717Z,3.93
2023-02-18T17:58:47.893Z,4.77
2023-02-18T18:01:24.002Z,5.77
2023-02-18T18:03:54.894Z,4.10
2023-02-18T18:06:26.836Z,7.07
2023-02-18T18:08:57.363Z,4.07
2023-02-18T18:11:37.699Z,4.90
2023-02-18T18:14:12.271Z,5.00
2023-02-18T18:16:42.048Z,4.47
2023-02-18T18:19:12.492Z,4.63
2023-02-18T18:21:56.736Z,5.90
2023-02-18T18:24:34.447Z,5.30
2023-02-18T18:27:05.272Z,4.23
2023-02-18T18:29:35.709Z,5.00
2023-02-18T18:32:09.197Z,4.80
2023-02-18T18:34:40.400Z,6.33
2023-02-18T18:37:10.503Z,5.97
2023-02-18T18:39:45.635Z,4.47
2023-02-18T18:44:59.222Z,4.50
2023-02-18T18:47:31.255Z,3.33
2023-02-18T18:50:00.274Z,4.38
2023-02-18T18:52:46.805Z,4.50
2023-02-18T18:55:40.435Z,4.97
2023-02-18T18:58:17.786Z,5.23
2023-02-18T19:00:47.796Z,3.73
2023-02-18T19:03:20.562Z,4.27
2023-02-18T19:05:51.921Z,6.07
2023-02-18T19:08:28.990Z,6.00
2023-02-18T19:16:43.314Z,5.10
2023-02-18T19:19:28.110Z,4.43
2023-02-18T19:22:04.570Z,4.53
2023-02-18T19:24:37.880Z,3.80
2023-02-18T19:27:08.955Z,5.63
2023-02-18T19:29:56.400Z,4.43
2023-02-18T19:32:27.954Z,4.80
2023-02-18T19:37:40.647Z,4.77
2023-02-18T19:40:16.166Z,3.87
2023-02-18T19:42:52.858Z,4.50
2023-02-18T19:45:29.124Z,4.13
2023-02-18T19:48:09.281Z,5.20
2023-02-18T19:53:28.866Z,4.20
2023-02-18T19:56:03.846Z,5.40
2023-02-18T19:58:35.178Z,4.20
2023-02-18T20:01:32.944Z,3.87
2023-02-18T20:04:05.915Z,4.07
2023-02-18T20:06:37.248Z,4.35
2023-02-18T20:09:07.844Z,4.35
2023-02-18T20:11:44.549Z,4.27
2023-02-18T20:14:19.828Z,6.27
2023-02-18T20:16:50.271Z,3.87
2023-02-18T20:19:20.547Z,5.00
2023-02-18T20:24:47.352Z,5.90
2023-02-18T20:27:22.038Z,4.25
2023-02-18T20:29:52.199Z,5.07
2023-02-18T20:32:22.657Z,4.50
2023-02-18T20:34:54.031Z,4.50
2023-02-18T20:37:27.092Z,4.78
2023-02-18T20:39:57.539Z,5.03
2023-02-18T20:42:28.360Z,5.63
2023-02-18T20:44:59.638Z,4.23
2023-02-18T20:47:28.705Z,4.90
2023-02-18T20:50:05.255Z,4.93
2023-02-18T20:52:35.484Z,5.03
2023-02-18T20:55:06.487Z,4.43
2023-02-18T20:57:35.318Z,5.30
2023-02-18T21:00:21.845Z,5.47
2023-02-18T21:02:51.123Z,6.40
2023-02-18T21:05:21.518Z,6.20
2023-02-18T21:07:58.495Z,7.27
2023-02-18T21:10:37.421Z,6.47
2023-02-18T21:13:08.355Z,5.67
2023-02-18T21:15:45.744Z,5.75
2023-02-18T21:18:19.482Z,6.47
2023-02-18T21:20:52.828Z,6.20
2023-02-18T21:23:24.230Z,7.03
2023-02-18T21:25:56.839Z,5.97
2023-02-18T21:28:27.999Z,6.97
2023-02-18T21:31:02.057Z,6.07
2023-02-18T21:36:24.034Z,6.77
2023-02-18T21:39:00.864Z,7.43
2023-02-18T21:41:35.599Z,7.77
2023-02-18T21:44:12.728Z,8.30
2023-02-18T21:46:57.335Z,6.93
2023-02-18T21:49:30.860Z,6.73
2023-02-18T21:52:11.702Z,6.47
2023-02-18T21:54:54.058Z,8.07
2023-02-18T21:57:30.780Z,7.53
2023-02-18T22:00:19.631Z,6.80
2023-02-18T22:02:53.626Z,6.10
2023-02-18T22:05:27.157Z,6.30
2023-02-18T22:08:06.355Z,6.57
2023-02-18T22:10:36.380Z,7.70
2023-02-18T22:13:12.940Z,7.77
2023-02-18T22:15:43.772Z,6.27
2023-02-18T22:18:15.412Z,7.00
2023-02-18T22:20:45.822Z,6.22
2023-02-18T22:23:19.505Z,8.63
2023-02-18T22:26:08.960Z,6.93
2023-02-18T22:28:39.851Z,7.07
2023-02-18T22:31:32.576Z,6.43
2023-02-18T22:34:09.646Z,7.07
2023-02-18T22:36:41.443Z,6.37
2023-02-18T22:44:34.517Z,5.80
2023-02-18T22:47:04.528Z,6.20
2023-02-18T22:49:34.912Z,7.13
2023-02-18T22:52:05.246Z,6.90
2023-02-18T22:54:40.552Z,7.28
2023-02-18T22:57:18.524Z,7.20
2023-02-18T22:59:56.043Z,8.20
2023-02-18T23:02:34.820Z,7.63
2023-02-18T23:05:07.538Z,6.27
2023-02-18T23:07:40.168Z,6.60
2023-02-18T23:10:13.805Z,6.83
2023-02-18T23:12:42.837Z,6.37
2023-02-18T23:15:20.368Z,7.77
2023-02-18T23:17:53.072Z,6.60
2023-02-18T23:20:45.988Z,7.17
2023-02-18T23:23:24.093Z,5.93
2023-02-18T23:25:54.777Z,7.13
2023-02-18T23:28:25.778Z,5.30
2023-02-18T23:30:56.665Z,6.65
2023-02-18T23:33:28.972Z,6.47
2023-02-18T23:36:05.121Z,6.70
2023-02-18T23:38:42.728Z,6.07
2023-02-18T23:41:14.099Z,5.10
2023-02-18T23:46:36.255Z,4.95
2023-02-18T23:49:13.384Z,5.03
2023-02-18T23:51:57.609Z,5.37
2023-02-18T23:54:26.131Z,5.50
2023-02-18T23:56:57.792Z,8.07
2023-02-18T23:59:34.084Z,5.88
